Time;durP1;ratioP1;P1;durP2;ratioP2;P2;SDS_P1;SDS_P2;PMS_P1;PMS_P2;Temp;Humidity;BMP_temperature;BMP_pressure;BME280_temperature;BME280_humidity;BME280_pressure;Samples;Min_cycle;Max_cycle;Signal;HPM_P1;HPM_P2
2023/10/16 00:01:06;;;;;;;0.65;0.63;;;16.00;69.70;;;;;;5113349;28;20200;-61
2023/10/16 00:03:32;;;;;;;0.70;0.70;;;16.00;69.70;;;;;;5112771;28;20231;-62
2023/10/16 00:05:58;;;;;;;0.90;0.85;;;16.00;69.70;;;;;;5113031;28;20672;-61
2023/10/16 00:08:24;;;;;;;1.15;0.70;;;15.90;70.40;;;;;;5112466;28;20226;-62
2023/10/16 00:10:57;;;;;;;1.02;0.80;;;15.90;69.60;;;;;;5113351;28;20173;-62
2023/10/16 00:13:28;;;;;;;0.77;0.75;;;15.90;69.60;;;;;;5113064;28;20186;-62
2023/10/16 00:15:55;;;;;;;1.05;0.93;;;15.90;69.50;;;;;;5112771;28;20176;-62
2023/10/16 00:18:23;;;;;;;0.80;0.70;;;15.90;69.60;;;;;;5112828;28;20652;-61
2023/10/16 00:20:50;;;;;;;1.08;0.98;;;15.90;69.60;;;;;;5113224;28;20259;-62
2023/10/16 00:23:17;;;;;;;1.17;0.80;;;15.90;69.60;;;;;;5112071;28;20177;-62
2023/10/16 00:25:43;;;;;;;1.50;0.95;;;15.90;69.60;;;;;;5113014;28;20217;-62
2023/10/16 00:28:09;;;;;;;1.25;0.90;;;15.90;69.60;;;;;;5112899;28;20173;-62
2023/10/16 00:30:35;;;;;;;1.25;0.70;;;15.90;69.40;;;;;;5112277;28;20184;-62
2023/10/16 00:33:01;;;;;;;1.15;1.05;;;15.90;69.50;;;;;;5112931;28;20169;-62
2023/10/16 00:35:27;;;;;;;0.90;0.70;;;15.90;69.60;;;;;;5112903;28;20184;-62
2023/10/16 00:37:52;;;;;;;1.15;1.00;;;15.90;69.60;;;;;;5112242;28;20168;-62
2023/10/16 00:40:33;;;;;;;0.80;0.80;;;15.90;69.60;;;;;;5112865;28;20180;-63
2023/10/16 00:43:06;;;;;;;1.02;0.70;;;15.90;69.60;;;;;;5112933;28;20210;-63
2023/10/16 00:45:35;;;;;;;1.10;0.98;;;15.80;69.60;;;;;;5112113;28;20212;-62
2023/10/16 00:48:01;;;;;;;0.65;0.63;;;15.90;69.60;;;;;;5077984;28;20177;-62
2023/10/16 00:50:26;;;;;;;1.00;0.95;;;15.90;69.50;;;;;;5112395;28;20180;-63
2023/10/16 00:52:52;;;;;;;0.88;0.70;;;15.90;69.60;;;;;;5094293;28;20169;-62
2023/10/16 00:55:20;;;;;;;1.08;0.80;;;15.90;69.70;;;;;;5094741;28;20680;-62
2023/10/16 00:57:45;;;;;;;0.95;0.95;;;15.90;69.70;;;;;;5094159;28;20556;-63
2023/10/16 01:00:12;;;;;;;1.20;1.10;;;15.80;69.40;;;;;;5077671;28;20619;-62
2023/10/16 01:02:40;;;;;;;0.80;0.80;;;15.80;69.50;;;;;;5116704;28;20177;-63
2023/10/16 01:05:07;;;;;;;0.75;0.70;;;15.80;69.50;;;;;;5115833;28;20549;-62
2023/10/16 01:07:36;;;;;;;0.80;0.80;;;15.80;69.60;;;;;;5098506;28;20212;-62
2023/10/16 01:10:02;;;;;;;1.67;0.90;;;15.80;69.50;;;;;;5116697;28;20173;-62
2023/10/16 01:12:28;;;;;;;0.80;0.80;;;15.80;69.60;;;;;;5115744;28;20183;-62
2023/10/16 01:14:54;;;;;;;0.98;0.98;;;15.80;69.50;;;;;;5116885;28;20252;-62
2023/10/16 01:17:29;;;;;;;0.82;0.80;;;15.80;69.50;;;;;;5116449;28;20264;-63
2023/10/16 01:19:56;;;;;;;1.35;1.00;;;15.80;69.60;;;;;;5116082;28;20185;-62
2023/10/16 01:22:22;;;;;;;0.85;0.80;;;15.80;69.60;;;;;;5116280;28;20253;-62
2023/10/16 01:24:48;;;;;;;0.95;0.82;;;15.80;70.40;;;;;;5116387;28;20185;-61
2023/10/16 01:27:29;;;;;;;0.70;0.70;;;15.80;69.60;;;;;;5115171;28;20208;-61
2023/10/16 01:29:57;;;;;;;0.80;0.80;;;15.80;69.60;;;;;;5116391;28;20173;-61
2023/10/16 01:32:22;;;;;;;1.10;1.00;;;15.80;69.60;;;;;;5116311;28;20187;-62
2023/10/16 01:34:50;;;;;;;0.90;0.90;;;15.80;69.60;;;;;;5115807;28;20260;-62
2023/10/16 01:37:18;;;;;;;1.35;1.00;;;15.80;69.70;;;;;;5115757;28;20183;-62
2023/10/16 01:39:53;;;;;;;0.80;0.80;;;15.80;69.60;;;;;;5098291;28;20177;-62
2023/10/16 01:42:19;;;;;;;0.80;0.80;;;15.80;69.60;;;;;;5115949;28;20264;-62
2023/10/16 01:44:45;;;;;;;1.00;0.73;;;15.80;69.60;;;;;;5115972;28;20252;-62
2023/10/16 01:47:17;;;;;;;1.20;1.10;;;15.80;69.70;;;;;;5115081;28;20204;-62
2023/10/16 01:49:49;;;;;;;0.82;0.80;;;15.80;69.70;;;;;;5116091;28;20177;-61
2023/10/16 01:52:14;;;;;;;0.80;0.80;;;15.80;69.70;;;;;;5115424;28;20228;-61
2023/10/16 01:54:40;;;;;;;1.50;1.20;;;15.80;69.70;;;;;;5115058;28;20161;-62
2023/10/16 01:57:10;;;;;;;2.15;1.00;;;15.80;69.70;;;;;;5115553;28;20196;-62
2023/10/16 01:59:39;;;;;;;1.02;1.00;;;15.70;69.70;;;;;;5115890;28;20177;-62
2023/10/16 02:02:05;;;;;;;0.80;0.80;;;15.80;69.70;;;;;;5114975;28;20177;-62
2023/10/16 02:04:30;;;;;;;1.20;1.08;;;15.70;69.70;;;;;;5115582;28;20184;-61
2023/10/16 02:06:56;;;;;;;0.90;0.90;;;15.70;69.70;;;;;;5115742;28;20280;-62
2023/10/16 02:09:24;;;;;;;1.00;1.00;;;15.70;69.70;;;;;;5114645;28;20623;-62
2023/10/16 02:11:50;;;;;;;1.15;1.05;;;15.70;69.70;;;;;;5115496;28;20181;-62
2023/10/16 02:14:15;;;;;;;1.77;1.00;;;15.70;69.70;;;;;;5115329;28;20511;-62
2023/10/16 02:16:41;;;;;;;1.13;1.02;;;15.70;69.70;;;;;;5114610;28;20176;-62
2023/10/16 02:19:07;;;;;;;1.25;0.90;;;15.70;69.80;;;;;;5115235;28;20177;-62
2023/10/16 02:21:33;;;;;;;1.30;1.20;;;15.70;69.70;;;;;;5115128;28;20511;-62
2023/10/16 02:24:03;;;;;;;1.00;1.00;;;15.70;69.80;;;;;;5114402;28;20226;-61
2023/10/16 02:26:30;;;;;;;1.33;1.23;;;15.70;69.80;;;;;;5114940;28;20220;-62
2023/10/16 02:29:00;;;;;;;1.63;1.10;;;15.70;69.80;;;;;;5115489;28;20608;-62
2023/10/16 02:31:25;;;;;;;1.33;1.10;;;15.70;69.80;;;;;;5114864;28;20549;-62
2023/10/16 02:33:53;;;;;;;0.90;0.90;;;15.70;69.80;;;;;;5115158;28;20169;-62
2023/10/16 02:36:19;;;;;;;0.90;0.90;;;15.70;69.70;;;;;;5114028;28;20303;-62
2023/10/16 02:38:47;;;;;;;1.42;0.80;;;15.70;69.80;;;;;;5114802;28;20248;-62
2023/10/16 02:41:19;;;;;;;1.20;1.05;;;15.70;69.80;;;;;;5114905;28;20181;-62
2023/10/16 02:43:46;;;;;;;1.30;1.20;;;15.70;69.80;;;;;;5114345;28;20184;-62
2023/10/16 02:46:19;;;;;;;1.17;1.10;;;15.70;69.80;;;;;;5114601;28;20253;-62
2023/10/16 02:48:44;;;;;;;1.05;0.80;;;15.70;69.80;;;;;;5114685;28;20715;-62
2023/10/16 02:51:10;;;;;;;1.17;1.08;;;15.70;69.80;;;;;;5113469;28;20229;-62
2023/10/16 02:53:36;;;;;;;0.80;0.80;;;15.60;69.80;;;;;;5114845;28;20208;-62
2023/10/16 02:56:05;;;;;;;1.42;0.90;;;15.70;69.90;;;;;;5114452;28;20631;-62
2023/10/16 02:58:32;;;;;;;1.20;1.10;;;15.60;69.80;;;;;;5113869;28;20181;-63
2023/10/16 03:00:59;;;;;;;1.10;1.00;;;15.60;69.80;;;;;;5114751;28;20196;-62
2023/10/16 03:03:26;;;;;;;1.33;1.00;;;15.60;69.90;;;;;;5114451;28;20177;-62
2023/10/16 03:05:55;;;;;;;1.10;0.85;;;15.60;69.80;;;;;;5113701;28;20229;-61
2023/10/16 03:08:29;;;;;;;0.90;0.90;;;15.60;69.90;;;;;;5114325;28;20181;-62
2023/10/16 03:10:55;;;;;;;1.17;1.10;;;15.60;69.80;;;;;;5114383;28;20174;-62
2023/10/16 03:13:21;;;;;;;1.50;1.15;;;15.60;69.90;;;;;;5113409;28;20173;-62
2023/10/16 03:15:47;;;;;;;1.02;1.00;;;15.60;69.80;;;;;;5114240;28;20175;-61
2023/10/16 03:18:22;;;;;;;1.20;1.10;;;15.60;69.80;;;;;;5113531;28;20669;-62
2023/10/16 03:20:48;;;;;;;1.15;1.05;;;15.60;70.00;;;;;;5114181;28;20251;-61
2023/10/16 03:23:14;;;;;;;1.10;1.00;;;15.60;69.90;;;;;;5113472;28;20688;-62
2023/10/16 03:28:13;;;;;;;0.95;0.95;;;15.60;69.90;;;;;;5113910;28;20222;-61
2023/10/16 03:30:42;;;;;;;2.22;1.38;;;15.60;70.00;;;;;;5113922;28;20199;-62
2023/10/16 03:33:07;;;;;;;1.15;1.05;;;15.60;69.90;;;;;;5113026;28;20525;-62
2023/10/16 03:35:34;;;;;;;0.95;0.90;;;15.60;69.90;;;;;;5113580;28;20673;-62
2023/10/16 03:38:01;;;;;;;1.27;1.13;;;15.50;69.90;;;;;;5113777;28;20548;-62
2023/10/16 03:40:27;;;;;;;1.15;1.00;;;15.60;69.90;;;;;;5113061;28;20197;-62
2023/10/16 03:42:56;;;;;;;1.13;1.02;;;15.60;69.90;;;;;;5113683;28;20214;-62
2023/10/16 03:45:21;;;;;;;1.00;1.00;;;15.60;69.90;;;;;;5113271;28;20165;-62
2023/10/16 03:47:53;;;;;;;1.10;0.93;;;15.60;69.90;;;;;;5112862;28;20594;-62
2023/10/16 03:50:34;;;;;;;1.33;1.23;;;15.60;70.00;;;;;;5113521;28;20242;-62
2023/10/16 03:53:01;;;;;;;0.80;0.80;;;15.60;69.90;;;;;;5113518;28;20196;-63
2023/10/16 03:55:26;;;;;;;1.10;1.00;;;15.60;69.90;;;;;;5112766;28;20180;-62
2023/10/16 03:57:52;;;;;;;1.42;1.33;;;15.60;70.00;;;;;;5113567;28;20530;-62
2023/10/16 04:00:19;;;;;;;0.80;0.70;;;15.50;69.90;;;;;;5113101;28;20173;-62
2023/10/16 04:02:44;;;;;;;1.27;0.82;;;15.50;69.90;;;;;;5112616;28;20632;-62
2023/10/16 04:07:54;;;;;;;1.00;0.95;;;15.60;70.00;;;;;;5112819;28;20561;-62
2023/10/16 04:10:28;;;;;;;1.15;1.00;;;15.50;69.90;;;;;;5113022;28;20173;-62
2023/10/16 04:12:55;;;;;;;1.15;0.90;;;15.50;69.90;;;;;;5113650;28;20257;-62
2023/10/16 04:18:05;;;;;;;1.05;0.90;;;15.50;69.90;;;;;;5113034;28;20179;-62
2023/10/16 04:20:43;;;;;;;1.70;1.10;;;15.50;69.90;;;;;;5112970;28;20264;-62
2023/10/16 04:23:29;;;;;;;1.20;0.80;;;15.50;69.90;;;;;;5112180;28;20177;-62
2023/10/16 04:26:47;;;;;;;0.95;0.95;;;15.50;69.90;;;;;;5113025;28;20661;-62
2023/10/16 04:31:45;;;;;;;1.35;0.85;;;15.50;70.00;;;;;;5113128;28;20222;-62
2023/10/16 04:36:52;;;;;;;0.80;0.80;;;15.50;70.00;;;;;;5111732;28;20179;-61
2023/10/16 04:44:49;;;;;;;1.48;1.00;;;15.50;69.90;;;;;;5112285;28;20176;-62
2023/10/16 04:47:17;;;;;;;0.73;0.73;;;15.40;69.90;;;;;;5112631;28;20212;-61
2023/10/16 04:49:59;;;;;;;1.27;0.90;;;15.50;70.00;;;;;;5112205;28;20177;-62
2023/10/16 04:55:23;;;;;;;1.42;1.00;;;15.50;70.00;;;;;;5080817;28;20658;-61
2023/10/16 04:57:53;;;;;;;0.80;0.80;;;15.40;70.00;;;;;;5112257;28;20182;-62
2023/10/16 05:00:54;;;;;;;1.08;0.98;;;15.50;70.00;;;;;;5112333;28;20173;-62
2023/10/16 05:03:23;;;;;;;0.80;0.80;;;15.40;69.90;;;;;;5112311;28;20611;-63
2023/10/16 05:08:38;;;;;;;1.13;0.93;;;15.50;69.90;;;;;;5112707;28;20169;-63
2023/10/16 05:11:27;;;;;;;1.48;0.95;;;15.50;69.80;;;;;;5111876;28;20232;-63
2023/10/16 05:14:04;;;;;;;1.40;1.08;;;15.60;69.80;;;;;;5112554;28;20176;-63
2023/10/16 05:16:49;;;;;;;1.13;0.80;;;15.60;69.70;;;;;;5112488;28;20632;-63
2023/10/16 06:14:11;;;;;;;0.95;0.93;;;15.60;69.40;;;;;;5115633;28;20176;-63
2023/10/16 06:16:38;;;;;;;0.88;0.70;;;15.80;69.50;;;;;;5115512;28;20193;-62
2023/10/16 06:19:07;;;;;;;1.50;0.80;;;16.00;69.40;;;;;;5115348;28;20181;-63
2023/10/16 06:21:33;;;;;;;1.60;0.90;;;16.20;69.00;;;;;;5114530;28;20177;-62
2023/10/16 06:23:59;;;;;;;0.60;0.60;;;16.30;68.60;;;;;;5115099;28;20283;-63
2023/10/16 06:26:27;;;;;;;1.10;0.80;;;16.50;68.10;;;;;;5114910;28;20664;-63
2023/10/16 06:28:52;;;;;;;0.60;0.60;;;16.70;67.70;;;;;;5114712;28;20239;-63
2023/10/16 06:31:24;;;;;;;1.17;1.00;;;16.90;67.20;;;;;;5114999;28;20522;-63
2023/10/16 06:33:58;;;;;;;0.63;0.63;;;17.20;66.30;;;;;;5115109;28;20675;-63
2023/10/16 06:36:24;;;;;;;1.27;1.00;;;17.40;65.50;;;;;;5113863;28;20180;-62
2023/10/16 06:38:51;;;;;;;1.50;0.73;;;17.60;65.20;;;;;;5114932;28;20169;-63
2023/10/16 06:41:18;;;;;;;0.70;0.70;;;17.70;64.80;;;;;;5114684;28;20256;-61
2023/10/16 06:43:47;;;;;;;1.00;0.80;;;17.70;64.60;;;;;;5114305;28;20182;-60
2023/10/16 06:46:23;;;;;;;1.45;0.70;;;17.80;64.50;;;;;;5114525;28;20528;-61
2023/10/16 06:48:50;;;;;;;0.70;0.70;;;17.80;64.30;;;;;;5114807;28;20705;-61
2023/10/16 06:51:15;;;;;;;0.70;0.70;;;17.90;64.20;;;;;;5113762;28;20273;-61
2023/10/16 06:53:45;;;;;;;1.63;0.73;;;17.90;64.10;;;;;;5114656;28;20169;-61
2023/10/16 06:56:14;;;;;;;1.42;0.70;;;17.90;64.20;;;;;;5114452;28;20196;-62
2023/10/16 06:58:40;;;;;;;1.08;0.60;;;17.90;64.10;;;;;;5113253;28;20173;-62
2023/10/16 07:01:06;;;;;;;0.55;0.55;;;17.90;64.20;;;;;;5114390;28;20259;-62
2023/10/16 07:03:33;;;;;;;0.70;0.70;;;17.90;64.20;;;;;;5113492;28;20580;-62
2023/10/16 07:05:59;;;;;;;1.10;0.70;;;17.90;64.00;;;;;;5114160;28;20601;-62
2023/10/16 07:08:24;;;;;;;0.70;0.70;;;17.90;64.30;;;;;;5114389;28;20190;-62
2023/10/16 07:10:52;;;;;;;0.50;0.50;;;17.80;64.40;;;;;;5113724;28;20260;-62
2023/10/16 07:13:27;;;;;;;3.67;0.82;;;17.70;64.60;;;;;;5113993;28;20169;-61
2023/10/16 07:16:00;;;;;;;0.60;0.60;;;17.60;64.80;;;;;;5114331;28;20172;-62
2023/10/16 07:18:26;;;;;;;0.57;0.57;;;17.60;65.00;;;;;;5113608;28;20185;-63
2023/10/16 07:23:20;;;;;;;0.88;0.68;;;17.50;65.20;;;;;;5113920;28;20169;-63
2023/10/16 07:25:54;;;;;;;0.85;0.70;;;17.50;65.20;;;;;;5113347;28;20545;-63
2023/10/16 07:28:20;;;;;;;0.77;0.77;;;17.60;65.20;;;;;;5113748;28;20550;-63
2023/10/16 07:30:46;;;;;;;1.20;0.70;;;17.60;65.20;;;;;;5114125;28;20188;-63
2023/10/16 07:33:15;;;;;;;0.88;0.70;;;17.60;65.30;;;;;;5113158;28;20165;-63
2023/10/16 07:35:44;;;;;;;0.70;0.70;;;17.60;65.30;;;;;;5113867;28;20613;-63
2023/10/16 07:38:19;;;;;;;0.80;0.63;;;17.50;65.30;;;;;;5113598;28;20173;-63
2023/10/16 07:40:51;;;;;;;0.70;0.68;;;17.50;65.40;;;;;;5112991;28;20589;-63
2023/10/16 07:43:26;;;;;;;1.02;0.75;;;17.40;65.40;;;;;;5113506;28;20173;-63
2023/10/16 07:45:53;;;;;;;1.35;0.90;;;17.40;65.80;;;;;;5112942;28;20232;-63
2023/10/16 07:48:20;;;;;;;1.00;0.60;;;17.30;66.00;;;;;;5113356;28;20654;-63
2023/10/16 07:50:48;;;;;;;0.75;0.75;;;17.30;66.00;;;;;;5113188;28;20217;-63
2023/10/16 07:53:17;;;;;;;1.60;0.95;;;17.30;66.10;;;;;;5112563;28;20181;-63
2023/10/16 07:55:50;;;;;;;3.20;1.10;;;17.40;66.00;;;;;;5113455;28;20818;-63
2023/10/16 07:58:23;;;;;;;2.38;0.77;;;17.40;66.00;;;;;;5113427;28;20238;-64
2023/10/16 08:03:41;;;;;;;1.00;0.90;;;17.50;65.90;;;;;;5113393;28;20681;-62
2023/10/16 08:06:17;;;;;;;2.08;0.75;;;17.50;65.80;;;;;;5113036;28;20235;-63
2023/10/16 08:08:48;;;;;;;1.77;1.25;;;17.40;65.90;;;;;;5112520;28;20670;-62
2023/10/16 08:11:21;;;;;;;2.28;1.00;;;17.40;65.90;;;;;;5112934;28;20177;-63
2023/10/16 08:13:49;;;;;;;1.42;1.13;;;17.40;66.00;;;;;;5112366;28;20554;-63
2023/10/16 08:16:18;;;;;;;0.82;0.80;;;17.40;66.10;;;;;;5112839;28;20180;-63
2023/10/16 08:18:50;;;;;;;2.25;0.98;;;17.30;66.10;;;;;;5113345;28;20204;-63
2023/10/16 08:21:24;;;;;;;2.22;0.90;;;17.30;66.30;;;;;;5112059;28;20179;-63
2023/10/16 08:23:50;;;;;;;0.98;0.88;;;17.30;66.40;;;;;;5113361;28;20183;-63
2023/10/16 08:26:42;;;;;;;3.03;0.80;;;17.30;66.50;;;;;;5112677;28;20714;-62
2023/10/16 08:32:43;;;;;;;1.83;0.90;;;17.20;66.80;;;;;;5113230;28;20225;-63
2023/10/16 08:34:40;;;;;;;1.45;0.73;;;17.20;67.00;;;;;;5112703;28;20246;-63
2023/10/16 08:37:08;;;;;;;0.82;0.80;;;17.10;67.00;;;;;;5112112;28;20169;-63
2023/10/16 08:39:36;;;;;;;0.75;0.70;;;17.10;67.20;;;;;;5113052;28;20181;-63
2023/10/16 08:42:20;;;;;;;1.05;0.80;;;17.10;67.40;;;;;;5112111;28;20559;-63
2023/10/16 08:44:51;;;;;;;1.50;0.80;;;17.10;67.40;;;;;;5112943;28;20180;-63
2023/10/16 08:47:25;;;;;;;0.95;0.80;;;17.10;67.50;;;;;;5078433;28;20279;-63
2023/10/16 08:49:53;;;;;;;1.85;0.73;;;17.00;67.60;;;;;;5095254;28;20275;-62
2023/10/16 08:52:20;;;;;;;1.00;0.82;;;17.00;67.70;;;;;;5094275;28;20251;-63
2023/10/16 08:57:25;;;;;;;1.42;0.88;;;16.90;67.90;;;;;;5111721;28;20173;-64
2023/10/16 08:59:50;;;;;;;0.60;0.60;;;16.90;68.00;;;;;;5112800;28;20172;-63
2023/10/16 09:02:17;;;;;;;2.55;1.27;;;16.90;68.10;;;;;;5094299;28;20180;-62
2023/10/16 09:04:49;;;;;;;1.35;0.60;;;16.90;68.10;;;;;;5112224;28;20180;-62
2023/10/16 09:07:17;;;;;;;2.05;0.80;;;16.80;68.10;;;;;;5078298;28;20578;-63
2023/10/16 09:09:44;;;;;;;0.60;0.60;;;16.80;68.20;;;;;;5112504;28;20639;-63
2023/10/16 09:12:12;;;;;;;1.63;0.77;;;16.80;68.20;;;;;;5111686;28;20640;-63
2023/10/16 09:14:38;;;;;;;1.10;1.00;;;16.80;68.30;;;;;;5112433;28;20244;-63
2023/10/16 09:17:06;;;;;;;1.25;1.08;;;16.80;68.40;;;;;;5093580;28;20613;-63
2023/10/16 09:19:34;;;;;;;1.10;0.80;;;16.80;68.40;;;;;;5112328;28;20184;-63
2023/10/16 09:22:08;;;;;;;0.50;0.50;;;16.80;68.40;;;;;;5113878;28;20209;-62
2023/10/16 09:24:34;;;;;;;2.42;1.40;;;16.80;68.50;;;;;;5115764;28;20177;-63
2023/10/16 09:27:11;;;;;;;0.95;0.70;;;16.80;68.40;;;;;;5116079;28;20291;-63
2023/10/16 09:29:36;;;;;;;1.00;0.70;;;16.90;68.50;;;;;;5099535;28;20176;-63
2023/10/16 09:32:06;;;;;;;1.30;0.80;;;16.90;68.40;;;;;;5115680;28;20211;-63
2023/10/16 09:34:33;;;;;;;2.40;1.00;;;16.90;68.30;;;;;;5098250;28;20165;-62
2023/10/16 09:39:46;;;;;;;1.17;0.65;;;16.90;68.20;;;;;;5115411;28;20188;-62
2023/10/16 09:42:12;;;;;;;0.70;0.70;;;16.90;68.20;;;;;;5098360;28;20181;-62
2023/10/16 09:45:29;;;;;;;0.98;0.80;;;16.90;68.20;;;;;;5116053;28;20354;-63
2023/10/16 09:47:31;;;;;;;0.73;0.60;;;16.90;68.20;;;;;;5104775;28;20252;-63
2023/10/16 09:50:01;;;;;;;1.38;0.70;;;16.90;68.30;;;;;;5097999;28;20623;-62
2023/10/16 09:52:30;;;;;;;0.90;0.57;;;16.90;68.30;;;;;;5115073;28;20225;-63
2023/10/16 09:54:56;;;;;;;1.90;0.70;;;16.80;68.20;;;;;;5116123;28;20176;-63
2023/10/16 09:57:27;;;;;;;1.75;0.70;;;16.90;68.30;;;;;;5115681;28;20265;-64
2023/10/16 10:00:00;;;;;;;1.00;0.65;;;16.80;68.10;;;;;;5115191;28;20169;-63
2023/10/16 10:02:26;;;;;;;1.88;0.93;;;16.90;68.10;;;;;;5115375;28;20226;-63
2023/10/16 10:05:03;;;;;;;0.60;0.60;;;16.90;68.10;;;;;;5115563;28;20169;-62
2023/10/16 10:07:36;;;;;;;0.70;0.70;;;16.90;68.20;;;;;;5097128;28;20220;-62
2023/10/16 10:12:47;;;;;;;1.27;0.80;;;16.90;68.30;;;;;;5086052;28;20230;-63
2023/10/16 10:15:25;;;;;;;1.55;0.55;;;16.90;68.20;;;;;;5079676;28;20180;-63
2023/10/16 10:17:54;;;;;;;1.70;0.80;;;16.90;68.20;;;;;;5115785;28;20191;-61
2023/10/16 10:20:39;;;;;;;0.70;0.60;;;17.00;68.10;;;;;;5114653;28;20238;-63
2023/10/16 10:23:05;;;;;;;0.57;0.57;;;17.00;67.90;;;;;;5100052;28;20169;-63
2023/10/16 10:25:40;;;;;;;0.63;0.50;;;17.00;68.00;;;;;;5096940;28;20188;-63
2023/10/16 10:28:15;;;;;;;4.28;1.10;;;17.00;67.90;;;;;;5114625;28;20577;-63
2023/10/16 10:30:43;;;;;;;2.55;0.65;;;17.10;67.90;;;;;;5115108;28;20558;-63
2023/10/16 10:33:10;;;;;;;0.85;0.60;;;17.10;67.80;;;;;;5114851;28;20202;-63
2023/10/16 10:35:39;;;;;;;1.58;0.43;;;17.20;67.80;;;;;;5114502;28;20260;-63
2023/10/16 10:38:29;;;;;;;1.45;1.13;;;17.20;67.70;;;;;;5115091;28;20636;-64
2023/10/16 10:41:04;;;;;;;1.02;0.77;;;17.30;67.60;;;;;;5115370;28;20246;-64
2023/10/16 10:43:49;;;;;;;1.05;0.70;;;17.30;67.60;;;;;;5114182;28;20172;-64
2023/10/16 10:46:20;;;;;;;2.28;0.68;;;17.30;67.60;;;;;;5114450;28;20291;-64
2023/10/16 10:48:46;;;;;;;2.35;0.77;;;17.30;67.60;;;;;;5114066;28;20172;-63
2023/10/16 10:51:13;;;;;;;2.10;0.85;;;17.30;67.50;;;;;;5114478;28;20673;-63
2023/10/16 10:53:54;;;;;;;0.57;0.57;;;17.40;67.60;;;;;;5114865;28;20188;-63
2023/10/16 10:56:23;;;;;;;0.60;0.60;;;17.40;67.50;;;;;;5113713;28;20177;-63
2023/10/16 10:58:49;;;;;;;3.85;0.70;;;17.40;67.50;;;;;;5114601;28;20264;-63
2023/10/16 11:01:28;;;;;;;1.23;0.50;;;17.30;67.60;;;;;;5114466;28;20177;-63
2023/10/16 11:03:55;;;;;;;5.45;0.85;;;17.30;67.70;;;;;;5113971;28;20181;-62
2023/10/16 11:06:31;;;;;;;6.78;0.88;;;17.30;67.70;;;;;;5114095;28;20583;-61
2023/10/16 11:08:56;;;;;;;3.30;0.80;;;17.30;67.80;;;;;;5114523;28;20261;-62
2023/10/16 11:11:22;;;;;;;2.65;0.80;;;17.20;67.90;;;;;;5078388;28;20204;-62
2023/10/16 11:13:47;;;;;;;3.13;1.00;;;17.20;68.10;;;;;;5114521;28;20242;-62
2023/10/16 11:16:14;;;;;;;3.78;1.10;;;17.10;68.20;;;;;;5114108;28;20201;-61
2023/10/16 11:18:57;;;;;;;2.72;0.80;;;17.10;68.30;;;;;;5113534;28;20177;-61
2023/10/16 11:21:25;;;;;;;5.40;0.90;;;17.10;68.70;;;;;;5113892;28;20165;-61
2023/10/16 11:24:00;;;;;;;5.85;1.00;;;17.00;68.30;;;;;;5095698;28;20177;-62
2023/10/16 11:26:28;;;;;;;3.45;0.95;;;17.00;68.50;;;;;;5096760;28;20209;-61
2023/10/16 11:28:54;;;;;;;3.05;0.85;;;17.00;68.50;;;;;;5114195;28;20178;-61
2023/10/16 11:31:21;;;;;;;3.75;0.77;;;17.00;68.60;;;;;;5094781;28;20223;-61
2023/10/16 11:34:06;;;;;;;2.00;1.17;;;17.00;68.60;;;;;;5113810;28;20184;-61
2023/10/16 11:36:34;;;;;;;2.78;0.95;;;17.00;68.80;;;;;;5098672;28;20165;-62
2023/10/16 11:39:03;;;;;;;2.63;1.00;;;17.00;68.70;;;;;;5113045;28;20177;-61
2023/10/16 11:41:32;;;;;;;1.38;0.93;;;17.00;68.60;;;;;;5113744;28;20504;-62
2023/10/16 11:44:01;;;;;;;2.45;0.77;;;17.10;68.50;;;;;;5113238;28;20173;-62
2023/10/16 11:46:28;;;;;;;1.85;0.70;;;17.10;68.50;;;;;;5112761;28;20597;-62
2023/10/16 11:51:57;;;;;;;0.80;0.80;;;17.00;68.60;;;;;;5112695;28;20216;-61
2023/10/16 11:54:23;;;;;;;1.88;0.60;;;17.00;68.70;;;;;;5113549;28;20534;-62
2023/10/16 11:56:55;;;;;;;6.05;1.15;;;17.00;69.50;;;;;;5113744;28;20727;-62
2023/10/16 11:59:22;;;;;;;3.53;0.80;;;17.00;68.80;;;;;;5112362;28;20229;-62
2023/10/16 12:01:51;;;;;;;2.53;0.80;;;16.90;68.80;;;;;;5113537;28;20177;-61
2023/10/16 12:04:19;;;;;;;3.35;0.82;;;16.90;68.80;;;;;;5113201;28;20180;-61
2023/10/16 12:06:45;;;;;;;4.25;1.02;;;16.90;68.90;;;;;;5112518;28;20204;-61
2023/10/16 12:09:19;;;;;;;1.38;0.73;;;17.00;68.90;;;;;;5113100;28;20180;-62
2023/10/16 12:11:49;;;;;;;0.82;0.60;;;17.00;68.90;;;;;;5113174;28;20177;-62
2023/10/16 12:14:15;;;;;;;2.78;0.80;;;17.00;68.80;;;;;;5112493;28;20214;-61
2023/10/16 12:16:45;;;;;;;1.17;0.70;;;17.00;68.80;;;;;;5113307;28;20173;-61
2023/10/16 12:19:17;;;;;;;1.98;0.50;;;17.00;68.70;;;;;;5112969;28;20203;-61
2023/10/16 12:21:43;;;;;;;2.67;1.10;;;17.00;68.70;;;;;;5112254;28;20176;-61
2023/10/16 12:24:12;;;;;;;1.10;0.70;;;17.00;68.70;;;;;;5112810;28;20278;-62
2023/10/16 12:26:40;;;;;;;1.02;0.70;;;17.00;68.70;;;;;;5113347;28;20213;-61
2023/10/16 12:29:08;;;;;;;1.98;0.80;;;17.00;68.60;;;;;;5112315;28;20173;-61
2023/10/16 12:31:34;;;;;;;1.08;0.90;;;17.00;68.60;;;;;;5112862;28;20180;-61
2023/10/16 12:33:59;;;;;;;1.35;0.70;;;17.10;68.70;;;;;;5112189;28;20200;-61
2023/10/16 12:36:26;;;;;;;0.63;0.57;;;17.10;68.70;;;;;;5112531;28;20177;-61
2023/10/16 12:38:54;;;;;;;3.67;0.70;;;17.10;68.60;;;;;;5112930;28;20173;-61
2023/10/16 12:41:21;;;;;;;1.08;0.60;;;17.10;68.70;;;;;;5111933;28;20538;-61
2023/10/16 12:43:47;;;;;;;1.00;0.90;;;17.00;68.70;;;;;;5112761;28;20173;-61
2023/10/16 12:46:13;;;;;;;2.08;0.88;;;17.00;69.50;;;;;;5112495;28;20247;-61
2023/10/16 12:48:43;;;;;;;0.65;0.63;;;17.00;68.80;;;;;;5111902;28;20570;-61
2023/10/16 12:51:10;;;;;;;2.10;0.70;;;17.00;68.80;;;;;;5112353;28;20277;-61
2023/10/16 12:53:39;;;;;;;0.73;0.73;;;17.00;68.90;;;;;;5112659;28;20250;-62
2023/10/16 12:56:05;;;;;;;2.55;0.75;;;17.00;68.80;;;;;;5111766;28;20527;-62
2023/10/16 12:58:35;;;;;;;0.98;0.70;;;17.00;68.90;;;;;;5116711;28;20701;-62
2023/10/16 13:01:10;;;;;;;1.25;0.80;;;17.00;69.00;;;;;;5116553;28;20177;-62
2023/10/16 13:03:36;;;;;;;1.98;0.80;;;17.00;69.00;;;;;;5116171;28;20180;-63
2023/10/16 13:06:07;;;;;;;1.17;0.90;;;17.00;69.00;;;;;;5116424;28;20273;-63
2023/10/16 13:08:34;;;;;;;2.08;0.90;;;17.00;69.00;;;;;;5116817;28;20179;-64
2023/10/16 13:10:59;;;;;;;2.35;0.90;;;17.00;69.10;;;;;;5116152;28;20173;-63
2023/10/16 13:13:25;;;;;;;2.65;0.70;;;17.00;69.00;;;;;;5116665;28;20276;-63
2023/10/16 13:15:54;;;;;;;1.73;0.60;;;16.90;69.00;;;;;;5116880;28;20177;-62
2023/10/16 13:18:30;;;;;;;2.10;0.52;;;17.00;68.90;;;;;;5115547;28;20184;-62
2023/10/16 13:21:06;;;;;;;1.50;0.70;;;17.00;68.80;;;;;;5116815;28;20183;-62
2023/10/16 13:23:34;;;;;;;1.90;0.70;;;17.00;68.70;;;;;;5115607;28;20177;-63
2023/10/16 13:26:00;;;;;;;1.88;0.90;;;17.00;68.70;;;;;;5119921;27;20630;-61
2023/10/16 13:28:26;;;;;;;2.00;0.70;;;17.00;68.70;;;;;;5129962;27;20176;-63
2023/10/16 13:30:52;;;;;;;2.25;1.20;;;17.00;68.70;;;;;;5117181;27;20177;-62
2023/10/16 13:33:18;;;;;;;2.05;0.80;;;17.00;68.70;;;;;;5116020;27;20177;-62
2023/10/16 13:35:44;;;;;;;1.20;0.70;;;17.00;68.60;;;;;;5136077;27;20173;-64
2023/10/16 13:38:10;;;;;;;1.70;0.77;;;17.00;68.60;;;;;;5135627;27;20176;-63
2023/10/16 13:40:35;;;;;;;2.30;0.77;;;17.00;68.60;;;;;;5136643;27;20678;-62
2023/10/16 13:43:02;;;;;;;1.30;0.70;;;17.10;68.70;;;;;;5124840;27;20547;-63
2023/10/16 13:45:27;;;;;;;2.60;0.75;;;17.10;68.70;;;;;;5115104;28;20176;-62
2023/10/16 13:47:53;;;;;;;2.90;1.27;;;17.00;68.60;;;;;;5116248;28;20287;-62
2023/10/16 13:50:27;;;;;;;1.10;0.70;;;17.10;68.60;;;;;;5115894;28;20177;-61
2023/10/16 13:52:53;;;;;;;3.17;0.90;;;17.10;68.70;;;;;;5115405;28;20201;-62
2023/10/16 13:55:20;;;;;;;3.88;0.80;;;17.10;68.70;;;;;;5115660;28;20169;-64
2023/10/16 13:57:47;;;;;;;2.60;0.90;;;17.10;68.70;;;;;;5115883;28;20204;-62
2023/10/16 14:00:31;;;;;;;1.88;0.90;;;17.10;68.70;;;;;;5127095;27;20181;-62
2023/10/16 14:03:09;;;;;;;3.28;0.73;;;17.10;68.70;;;;;;5136540;27;20256;-61
2023/10/16 14:05:41;;;;;;;1.80;0.93;;;17.10;68.70;;;;;;5135544;27;20176;-62
2023/10/16 14:08:09;;;;;;;4.82;1.27;;;17.00;68.70;;;;;;5135577;27;20233;-62
2023/10/16 14:11:00;;;;;;;1.77;0.65;;;17.00;68.70;;;;;;5135911;27;20571;-63
2023/10/16 14:13:27;;;;;;;0.90;0.90;;;17.00;68.80;;;;;;5134624;27;20189;-63
2023/10/16 14:16:11;;;;;;;2.42;0.80;;;17.00;68.80;;;;;;5136072;27;20668;-62
2023/10/16 14:18:43;;;;;;;1.85;0.45;;;17.00;68.90;;;;;;5135885;27;20241;-63
2023/10/16 14:21:10;;;;;;;0.75;0.60;;;17.00;68.90;;;;;;5135092;27;20179;-62
2023/10/16 14:23:38;;;;;;;3.00;0.68;;;17.00;68.90;;;;;;5135569;27;20627;-63
2023/10/16 14:26:10;;;;;;;4.07;0.73;;;17.00;69.00;;;;;;5135792;27;20291;-62
2023/10/16 14:28:50;;;;;;;1.55;0.77;;;17.00;69.00;;;;;;5135023;27;20646;-61
2023/10/16 14:31:20;;;;;;;2.75;0.60;;;17.00;69.10;;;;;;5135339;27;20677;-62
2023/10/16 14:33:46;;;;;;;1.02;0.52;;;16.90;69.10;;;;;;5127562;27;20181;-62
2023/10/16 14:36:16;;;;;;;1.00;0.57;;;16.90;69.20;;;;;;5114939;28;20180;-63
2023/10/16 14:38:42;;;;;;;2.47;0.60;;;16.90;69.20;;;;;;5115146;28;20177;-62